Enid, OK

2:51 PM CST en Diciembre 20, 2014 (GMT -0600)
old post road | Change Station
CLOSE
Current Station
Estación meteorológica personal
Location: Enid, OK
Altura: 1306 ft
Estaciones meteorológicas cercanas

Alt 1306 ft 36.42 °N, 97.91 °W | Updated 10 minutes ago

Nublado
Nublado
44.5 ° F
Sensación térmica 44 ° F
N
1.0
Viento Variable Viento desde SSO
Gusts 6.0 mph

Hoy
Alta -- | Baja -- ° F
--% Posibilidad de precipitaciones
Ayer
Alta -- | Baja -- ° F
Precip. -- pul
7:38 AM 5:19 PM
Creciente menguante, 2% visible
Presión 30.13 pul
Visibilidad 7.0 Millas
Nubes Nublado 4000 ft
Vientos helados 44 ° F
Punto de rocío 41 ° F
Humedad 86%
Precipitaciones 0.00 pul
Espesor de la nieve No disponible.
UV 1 de una escala de 12
Polen 7.40 de una escala de 12
Calidad del aire No disponible.
Flu Activity No disponible.
METAR KWDG 201950Z 19013G18KT 7SM OVC040 08/04 A3013

More Conditions Fewer Conditions

Presión 30.13 pul
Visibilidad 7.0 Millas
Nubes Nublado 4000 ft
Vientos helados 44 ° F
Punto de rocío 41 ° F
Humedad 86%
Precipitaciones 0.00 pul
Espesor de la nieve No disponible.
UV 1 de una escala de 12
Polen 7.40 de una escala de 12
Calidad del aire No disponible.
Flu Activity No disponible.
METAR KWDG 201950Z 19013G18KT 7SM OVC040 08/04 A3013

More Conditions Fewer Conditions

10-Day Weather Forecast

Almanac

Astronomía

Dec. 20, 2014 Salida Puesta
Hora real
Crepúsculo civil
Crepúsculo náutico
Crepúsculo astronómico
Luna
Horas de luz
Horas de luz
Tomorrow will be .
, % of the Moon is Illuminated

Extremos de hoy

Máximos del estado Bajos del estado

Community

WunderPhotos

Upload Photos

1,779,271 ¡fotos cargadas!

WunderBlogs® & News

Nearby

Calidad del aire

  Calidad del aire Índice AQ Contaminante
Not available.

Grosos de nieve

Estación Profundido Altura

Actividad de terremotos

Ciudad Distance Mag. Tiempo y dato
Magnitud mínima muestra es 2,5.

Temperaturas de aguas costeras

Lugar Temperatura

Estaciones meteorológicas cercanas